sensor_id;sensor_type;location;lat;lon;timestamp;P1;durP1;ratioP1;P2;durP2;ratioP2
5688;SDS011;2869;50.432;8.680;2022-10-31T00:01:09;14.80;;;7.37;;
5688;SDS011;2869;50.432;8.680;2022-10-31T00:03:36;17.87;;;8.00;;
5688;SDS011;2869;50.432;8.680;2022-10-31T00:06:04;18.60;;;7.43;;
5688;SDS011;2869;50.432;8.680;2022-10-31T00:08:31;14.63;;;7.40;;
5688;SDS011;2869;50.432;8.680;2022-10-31T00:10:58;20.27;;;7.70;;
5688;SDS011;2869;50.432;8.680;2022-10-31T00:13:25;19.60;;;7.30;;
5688;SDS011;2869;50.432;8.680;2022-10-31T00:15:51;17.03;;;7.00;;
5688;SDS011;2869;50.432;8.680;2022-10-31T00:18:18;11.53;;;6.87;;
5688;SDS011;2869;50.432;8.680;2022-10-31T00:20:45;14.13;;;7.40;;
5688;SDS011;2869;50.432;8.680;2022-10-31T00:23:13;11.27;;;7.40;;
5688;SDS011;2869;50.432;8.680;2022-10-31T00:25:39;15.50;;;7.13;;
5688;SDS011;2869;50.432;8.680;2022-10-31T00:28:06;16.93;;;7.10;;
5688;SDS011;2869;50.432;8.680;2022-10-31T00:30:36;19.50;;;9.50;;
5688;SDS011;2869;50.432;8.680;2022-10-31T00:33:03;17.90;;;8.90;;
5688;SDS011;2869;50.432;8.680;2022-10-31T00:35:30;17.23;;;7.47;;
5688;SDS011;2869;50.432;8.680;2022-10-31T00:37:57;15.53;;;8.50;;
5688;SDS011;2869;50.432;8.680;2022-10-31T00:40:25;15.27;;;8.33;;
5688;SDS011;2869;50.432;8.680;2022-10-31T00:42:51;23.83;;;8.43;;
5688;SDS011;2869;50.432;8.680;2022-10-31T00:45:18;16.70;;;8.13;;
5688;SDS011;2869;50.432;8.680;2022-10-31T00:47:45;19.90;;;8.67;;
5688;SDS011;2869;50.432;8.680;2022-10-31T00:50:11;23.27;;;7.83;;
5688;SDS011;2869;50.432;8.680;2022-10-31T00:52:38;14.17;;;7.67;;
5688;SDS011;2869;50.432;8.680;2022-10-31T00:55:05;13.37;;;8.00;;
5688;SDS011;2869;50.432;8.680;2022-10-31T00:57:33;13.03;;;8.00;;
5688;SDS011;2869;50.432;8.680;2022-10-31T01:00:00;12.93;;;7.73;;
5688;SDS011;2869;50.432;8.680;2022-10-31T01:02:26;13.00;;;8.50;;
5688;SDS011;2869;50.432;8.680;2022-10-31T01:04:53;11.00;;;7.63;;
5688;SDS011;2869;50.432;8.680;2022-10-31T01:07:20;19.90;;;8.37;;
5688;SDS011;2869;50.432;8.680;2022-10-31T01:09:46;13.50;;;7.67;;
5688;SDS011;2869;50.432;8.680;2022-10-31T01:12:13;18.20;;;8.00;;
5688;SDS011;2869;50.432;8.680;2022-10-31T01:14:43;21.73;;;7.90;;
5688;SDS011;2869;50.432;8.680;2022-10-31T01:17:10;16.97;;;7.90;;
5688;SDS011;2869;50.432;8.680;2022-10-31T01:19:37;17.73;;;7.87;;
5688;SDS011;2869;50.432;8.680;2022-10-31T01:22:03;16.40;;;8.03;;
5688;SDS011;2869;50.432;8.680;2022-10-31T01:24:30;13.37;;;7.80;;
5688;SDS011;2869;50.432;8.680;2022-10-31T01:26:57;16.10;;;7.73;;
5688;SDS011;2869;50.432;8.680;2022-10-31T01:29:24;12.77;;;7.80;;
5688;SDS011;2869;50.432;8.680;2022-10-31T01:31:52;13.50;;;8.17;;
5688;SDS011;2869;50.432;8.680;2022-10-31T01:34:18;12.67;;;7.57;;
5688;SDS011;2869;50.432;8.680;2022-10-31T01:36:45;13.90;;;7.23;;
5688;SDS011;2869;50.432;8.680;2022-10-31T01:39:16;8.23;;;6.40;;
5688;SDS011;2869;50.432;8.680;2022-10-31T01:41:44;18.47;;;7.53;;
5688;SDS011;2869;50.432;8.680;2022-10-31T01:47:17;15.80;;;7.70;;
5688;SDS011;2869;50.432;8.680;2022-10-31T01:49:51;16.37;;;8.50;;
5688;SDS011;2869;50.432;8.680;2022-10-31T01:52:24;17.17;;;7.90;;
5688;SDS011;2869;50.432;8.680;2022-10-31T01:54:53;12.70;;;8.03;;
5688;SDS011;2869;50.432;8.680;2022-10-31T01:57:24;21.03;;;8.43;;
5688;SDS011;2869;50.432;8.680;2022-10-31T01:59:53;15.30;;;8.27;;
5688;SDS011;2869;50.432;8.680;2022-10-31T02:02:25;16.57;;;8.80;;
5688;SDS011;2869;50.432;8.680;2022-10-31T02:04:53;11.80;;;8.03;;
5688;SDS011;2869;50.432;8.680;2022-10-31T02:07:22;16.40;;;8.60;;
5688;SDS011;2869;50.432;8.680;2022-10-31T02:09:52;18.23;;;8.87;;
5688;SDS011;2869;50.432;8.680;2022-10-31T02:12:21;15.03;;;8.00;;
5688;SDS011;2869;50.432;8.680;2022-10-31T02:14:48;18.23;;;8.83;;
5688;SDS011;2869;50.432;8.680;2022-10-31T02:17:14;14.23;;;8.30;;
5688;SDS011;2869;50.432;8.680;2022-10-31T02:19:45;17.40;;;7.80;;
5688;SDS011;2869;50.432;8.680;2022-10-31T02:22:19;17.27;;;7.33;;
5688;SDS011;2869;50.432;8.680;2022-10-31T02:25:02;15.13;;;7.57;;
5688;SDS011;2869;50.432;8.680;2022-10-31T02:27:50;16.20;;;8.30;;
5688;SDS011;2869;50.432;8.680;2022-10-31T02:30:27;10.97;;;8.10;;
5688;SDS011;2869;50.432;8.680;2022-10-31T02:33:13;16.07;;;8.20;;
5688;SDS011;2869;50.432;8.680;2022-10-31T02:35:50;11.27;;;7.77;;
5688;SDS011;2869;50.432;8.680;2022-10-31T02:38:24;18.10;;;8.73;;
5688;SDS011;2869;50.432;8.680;2022-10-31T02:41:01;12.13;;;7.70;;
5688;SDS011;2869;50.432;8.680;2022-10-31T02:43:39;13.83;;;7.40;;
5688;SDS011;2869;50.432;8.680;2022-10-31T02:46:13;9.53;;;6.93;;
5688;SDS011;2869;50.432;8.680;2022-10-31T02:48:46;23.30;;;7.53;;
5688;SDS011;2869;50.432;8.680;2022-10-31T02:51:16;16.10;;;7.50;;
5688;SDS011;2869;50.432;8.680;2022-10-31T02:53:43;15.37;;;8.50;;
5688;SDS011;2869;50.432;8.680;2022-10-31T02:56:11;11.63;;;7.30;;
5688;SDS011;2869;50.432;8.680;2022-10-31T02:58:40;20.73;;;7.43;;
5688;SDS011;2869;50.432;8.680;2022-10-31T03:01:16;12.00;;;8.20;;
5688;SDS011;2869;50.432;8.680;2022-10-31T03:03:56;17.70;;;7.83;;
5688;SDS011;2869;50.432;8.680;2022-10-31T03:06:33;13.07;;;8.13;;
5688;SDS011;2869;50.432;8.680;2022-10-31T03:09:08;9.60;;;7.00;;
5688;SDS011;2869;50.432;8.680;2022-10-31T03:11:42;16.70;;;7.73;;
5688;SDS011;2869;50.432;8.680;2022-10-31T03:14:17;15.00;;;7.23;;
5688;SDS011;2869;50.432;8.680;2022-10-31T03:16:49;10.93;;;7.80;;
5688;SDS011;2869;50.432;8.680;2022-10-31T03:19:18;10.97;;;6.80;;
5688;SDS011;2869;50.432;8.680;2022-10-31T03:21:49;17.17;;;7.87;;
5688;SDS011;2869;50.432;8.680;2022-10-31T03:24:21;16.50;;;7.93;;
5688;SDS011;2869;50.432;8.680;2022-10-31T03:26:53;17.93;;;6.90;;
5688;SDS011;2869;50.432;8.680;2022-10-31T03:29:24;11.83;;;7.33;;
5688;SDS011;2869;50.432;8.680;2022-10-31T03:31:54;23.10;;;6.83;;
5688;SDS011;2869;50.432;8.680;2022-10-31T03:34:25;20.97;;;7.47;;
5688;SDS011;2869;50.432;8.680;2022-10-31T03:36:56;15.43;;;7.40;;
5688;SDS011;2869;50.432;8.680;2022-10-31T03:39:26;12.50;;;7.80;;
5688;SDS011;2869;50.432;8.680;2022-10-31T03:41:54;18.83;;;8.23;;
5688;SDS011;2869;50.432;8.680;2022-10-31T03:44:23;17.43;;;8.80;;
5688;SDS011;2869;50.432;8.680;2022-10-31T03:46:52;14.43;;;8.23;;
5688;SDS011;2869;50.432;8.680;2022-10-31T03:49:19;17.23;;;9.03;;
5688;SDS011;2869;50.432;8.680;2022-10-31T03:51:49;11.87;;;8.40;;
5688;SDS011;2869;50.432;8.680;2022-10-31T03:54:22;18.17;;;8.83;;
5688;SDS011;2869;50.432;8.680;2022-10-31T03:56:53;14.87;;;8.67;;
5688;SDS011;2869;50.432;8.680;2022-10-31T03:59:24;12.40;;;7.80;;
5688;SDS011;2869;50.432;8.680;2022-10-31T04:01:55;11.53;;;7.93;;
5688;SDS011;2869;50.432;8.680;2022-10-31T04:04:26;13.53;;;8.17;;
5688;SDS011;2869;50.432;8.680;2022-10-31T04:06:56;14.03;;;8.13;;
5688;SDS011;2869;50.432;8.680;2022-10-31T04:09:26;15.00;;;7.47;;
5688;SDS011;2869;50.432;8.680;2022-10-31T04:11:56;16.70;;;8.40;;
5688;SDS011;2869;50.432;8.680;2022-10-31T04:14:25;12.60;;;8.03;;
5688;SDS011;2869;50.432;8.680;2022-10-31T04:16:53;11.90;;;8.20;;
5688;SDS011;2869;50.432;8.680;2022-10-31T04:19:20;16.77;;;7.90;;
5688;SDS011;2869;50.432;8.680;2022-10-31T04:21:47;18.67;;;7.50;;
5688;SDS011;2869;50.432;8.680;2022-10-31T04:24:15;13.83;;;7.80;;
5688;SDS011;2869;50.432;8.680;2022-10-31T04:26:42;15.83;;;8.83;;
5688;SDS011;2869;50.432;8.680;2022-10-31T04:29:08;11.80;;;7.83;;
5688;SDS011;2869;50.432;8.680;2022-10-31T04:31:35;20.97;;;8.40;;
5688;SDS011;2869;50.432;8.680;2022-10-31T04:34:01;10.80;;;8.80;;
5688;SDS011;2869;50.432;8.680;2022-10-31T04:36:28;14.40;;;9.00;;
5688;SDS011;2869;50.432;8.680;2022-10-31T04:38:55;17.33;;;8.90;;
5688;SDS011;2869;50.432;8.680;2022-10-31T04:41:23;19.90;;;8.70;;
5688;SDS011;2869;50.432;8.680;2022-10-31T04:43:49;10.50;;;8.67;;
5688;SDS011;2869;50.432;8.680;2022-10-31T04:46:16;12.90;;;9.33;;
5688;SDS011;2869;50.432;8.680;2022-10-31T04:48:43;13.23;;;8.67;;
5688;SDS011;2869;50.432;8.680;2022-10-31T04:51:10;10.50;;;8.73;;
5688;SDS011;2869;50.432;8.680;2022-10-31T04:53:37;15.10;;;8.93;;
5688;SDS011;2869;50.432;8.680;2022-10-31T04:56:03;13.90;;;9.07;;
5688;SDS011;2869;50.432;8.680;2022-10-31T04:58:32;12.63;;;9.70;;
5688;SDS011;2869;50.432;8.680;2022-10-31T05:00:58;10.43;;;8.17;;
5688;SDS011;2869;50.432;8.680;2022-10-31T05:03:25;14.33;;;7.70;;
5688;SDS011;2869;50.432;8.680;2022-10-31T05:05:52;11.90;;;7.47;;
5688;SDS011;2869;50.432;8.680;2022-10-31T05:08:18;10.23;;;8.20;;
5688;SDS011;2869;50.432;8.680;2022-10-31T05:10:45;16.27;;;8.37;;
5688;SDS011;2869;50.432;8.680;2022-10-31T05:13:12;9.20;;;8.10;;
5688;SDS011;2869;50.432;8.680;2022-10-31T05:15:41;10.17;;;7.97;;
5688;SDS011;2869;50.432;8.680;2022-10-31T05:18:07;17.30;;;8.00;;
5688;SDS011;2869;50.432;8.680;2022-10-31T05:20:34;11.77;;;7.97;;
5688;SDS011;2869;50.432;8.680;2022-10-31T05:23:01;9.30;;;8.27;;
5688;SDS011;2869;50.432;8.680;2022-10-31T05:25:28;10.20;;;8.20;;
5688;SDS011;2869;50.432;8.680;2022-10-31T05:27:55;11.20;;;8.90;;
5688;SDS011;2869;50.432;8.680;2022-10-31T05:30:23;8.97;;;8.03;;
5688;SDS011;2869;50.432;8.680;2022-10-31T05:32:52;11.60;;;8.80;;
5688;SDS011;2869;50.432;8.680;2022-10-31T05:35:19;11.90;;;7.80;;
5688;SDS011;2869;50.432;8.680;2022-10-31T05:37:47;8.90;;;7.63;;
5688;SDS011;2869;50.432;8.680;2022-10-31T05:40:15;11.70;;;8.87;;
5688;SDS011;2869;50.432;8.680;2022-10-31T05:42:43;10.20;;;9.03;;
5688;SDS011;2869;50.432;8.680;2022-10-31T05:45:11;18.90;;;9.40;;
5688;SDS011;2869;50.432;8.680;2022-10-31T05:47:38;19.20;;;9.80;;
5688;SDS011;2869;50.432;8.680;2022-10-31T05:50:07;16.40;;;9.77;;
5688;SDS011;2869;50.432;8.680;2022-10-31T05:52:35;13.50;;;9.97;;
5688;SDS011;2869;50.432;8.680;2022-10-31T05:55:02;13.83;;;9.60;;
5688;SDS011;2869;50.432;8.680;2022-10-31T05:57:29;19.03;;;9.10;;
5688;SDS011;2869;50.432;8.680;2022-10-31T05:59:58;12.97;;;9.10;;
5688;SDS011;2869;50.432;8.680;2022-10-31T06:02:25;13.30;;;9.90;;
5688;SDS011;2869;50.432;8.680;2022-10-31T06:04:51;16.67;;;9.37;;
5688;SDS011;2869;50.432;8.680;2022-10-31T06:07:20;14.10;;;9.43;;
5688;SDS011;2869;50.432;8.680;2022-10-31T06:09:46;16.00;;;10.20;;
5688;SDS011;2869;50.432;8.680;2022-10-31T06:12:13;16.57;;;9.77;;
5688;SDS011;2869;50.432;8.680;2022-10-31T06:14:40;20.33;;;11.60;;
5688;SDS011;2869;50.432;8.680;2022-10-31T06:17:06;18.50;;;10.43;;
5688;SDS011;2869;50.432;8.680;2022-10-31T06:19:33;16.17;;;9.63;;
5688;SDS011;2869;50.432;8.680;2022-10-31T06:22:00;18.60;;;10.17;;
5688;SDS011;2869;50.432;8.680;2022-10-31T06:24:28;18.67;;;10.50;;
5688;SDS011;2869;50.432;8.680;2022-10-31T06:26:54;17.50;;;10.10;;
5688;SDS011;2869;50.432;8.680;2022-10-31T06:29:21;22.43;;;11.03;;
5688;SDS011;2869;50.432;8.680;2022-10-31T06:31:50;30.30;;;11.70;;
5688;SDS011;2869;50.432;8.680;2022-10-31T06:34:17;21.13;;;10.40;;
5688;SDS011;2869;50.432;8.680;2022-10-31T06:36:45;22.50;;;11.53;;
5688;SDS011;2869;50.432;8.680;2022-10-31T06:39:11;28.00;;;11.53;;
5688;SDS011;2869;50.432;8.680;2022-10-31T06:41:40;33.33;;;12.27;;
5688;SDS011;2869;50.432;8.680;2022-10-31T06:44:07;28.30;;;12.00;;
5688;SDS011;2869;50.432;8.680;2022-10-31T06:46:34;36.50;;;11.37;;
5688;SDS011;2869;50.432;8.680;2022-10-31T06:49:00;19.00;;;11.70;;
5688;SDS011;2869;50.432;8.680;2022-10-31T06:51:27;34.80;;;12.20;;
5688;SDS011;2869;50.432;8.680;2022-10-31T06:53:54;25.63;;;11.73;;
5688;SDS011;2869;50.432;8.680;2022-10-31T06:56:20;30.93;;;11.53;;
5688;SDS011;2869;50.432;8.680;2022-10-31T06:58:48;30.53;;;11.00;;
5688;SDS011;2869;50.432;8.680;2022-10-31T07:01:15;30.53;;;12.27;;
5688;SDS011;2869;50.432;8.680;2022-10-31T07:03:41;31.90;;;10.20;;
5688;SDS011;2869;50.432;8.680;2022-10-31T07:06:08;37.13;;;12.40;;
5688;SDS011;2869;50.432;8.680;2022-10-31T07:08:35;20.13;;;9.73;;
5688;SDS011;2869;50.432;8.680;2022-10-31T07:11:01;17.47;;;10.40;;
5688;SDS011;2869;50.432;8.680;2022-10-31T07:13:28;20.13;;;9.93;;
5688;SDS011;2869;50.432;8.680;2022-10-31T07:16:03;17.40;;;10.33;;
5688;SDS011;2869;50.432;8.680;2022-10-31T07:18:31;21.53;;;10.63;;
5688;SDS011;2869;50.432;8.680;2022-10-31T07:20:58;17.93;;;10.73;;
5688;SDS011;2869;50.432;8.680;2022-10-31T07:23:25;15.47;;;10.07;;
5688;SDS011;2869;50.432;8.680;2022-10-31T07:25:54;23.83;;;11.07;;
5688;SDS011;2869;50.432;8.680;2022-10-31T07:28:21;19.90;;;11.30;;
5688;SDS011;2869;50.432;8.680;2022-10-31T07:30:49;16.27;;;10.67;;
5688;SDS011;2869;50.432;8.680;2022-10-31T07:33:18;16.07;;;10.17;;
5688;SDS011;2869;50.432;8.680;2022-10-31T07:35:44;14.77;;;9.27;;
5688;SDS011;2869;50.432;8.680;2022-10-31T07:38:12;12.67;;;8.40;;
5688;SDS011;2869;50.432;8.680;2022-10-31T07:40:39;12.47;;;8.80;;
5688;SDS011;2869;50.432;8.680;2022-10-31T07:43:07;19.50;;;9.57;;
5688;SDS011;2869;50.432;8.680;2022-10-31T07:45:36;13.53;;;8.70;;
5688;SDS011;2869;50.432;8.680;2022-10-31T07:48:03;12.50;;;8.60;;
5688;SDS011;2869;50.432;8.680;2022-10-31T07:50:31;16.13;;;8.63;;
5688;SDS011;2869;50.432;8.680;2022-10-31T07:52:59;10.33;;;8.33;;
5688;SDS011;2869;50.432;8.680;2022-10-31T07:55:26;13.27;;;8.93;;
5688;SDS011;2869;50.432;8.680;2022-10-31T07:57:57;17.13;;;9.77;;
5688;SDS011;2869;50.432;8.680;2022-10-31T08:00:25;20.23;;;10.30;;
5688;SDS011;2869;50.432;8.680;2022-10-31T08:02:59;19.57;;;10.30;;
5688;SDS011;2869;50.432;8.680;2022-10-31T08:05:26;23.37;;;10.40;;
5688;SDS011;2869;50.432;8.680;2022-10-31T08:07:55;18.23;;;9.93;;
5688;SDS011;2869;50.432;8.680;2022-10-31T08:10:22;22.13;;;9.70;;
5688;SDS011;2869;50.432;8.680;2022-10-31T08:12:54;16.50;;;9.70;;
5688;SDS011;2869;50.432;8.680;2022-10-31T08:15:22;16.77;;;10.63;;
5688;SDS011;2869;50.432;8.680;2022-10-31T08:17:49;18.37;;;8.73;;
5688;SDS011;2869;50.432;8.680;2022-10-31T08:20:15;14.17;;;9.50;;
5688;SDS011;2869;50.432;8.680;2022-10-31T08:22:42;17.20;;;9.70;;
5688;SDS011;2869;50.432;8.680;2022-10-31T08:25:10;12.10;;;9.83;;
5688;SDS011;2869;50.432;8.680;2022-10-31T08:27:37;15.80;;;9.90;;
5688;SDS011;2869;50.432;8.680;2022-10-31T08:30:04;15.87;;;9.93;;
5688;SDS011;2869;50.432;8.680;2022-10-31T08:32:32;15.77;;;9.70;;
5688;SDS011;2869;50.432;8.680;2022-10-31T08:34:58;21.03;;;10.50;;
5688;SDS011;2869;50.432;8.680;2022-10-31T08:37:25;13.27;;;10.20;;
5688;SDS011;2869;50.432;8.680;2022-10-31T08:39:52;17.60;;;11.57;;
5688;SDS011;2869;50.432;8.680;2022-10-31T08:42:20;20.17;;;11.90;;
5688;SDS011;2869;50.432;8.680;2022-10-31T08:44:46;16.40;;;11.70;;
5688;SDS011;2869;50.432;8.680;2022-10-31T08:47:13;17.00;;;11.10;;
5688;SDS011;2869;50.432;8.680;2022-10-31T08:49:40;21.67;;;11.00;;
5688;SDS011;2869;50.432;8.680;2022-10-31T08:52:06;26.20;;;11.80;;
5688;SDS011;2869;50.432;8.680;2022-10-31T08:54:33;23.33;;;11.60;;
5688;SDS011;2869;50.432;8.680;2022-10-31T08:57:00;18.43;;;12.17;;
5688;SDS011;2869;50.432;8.680;2022-10-31T08:59:28;21.90;;;11.67;;
5688;SDS011;2869;50.432;8.680;2022-10-31T09:01:55;18.93;;;11.70;;
5688;SDS011;2869;50.432;8.680;2022-10-31T09:04:21;19.40;;;11.97;;
5688;SDS011;2869;50.432;8.680;2022-10-31T09:06:48;20.70;;;12.90;;
5688;SDS011;2869;50.432;8.680;2022-10-31T09:09:15;18.70;;;12.17;;
5688;SDS011;2869;50.432;8.680;2022-10-31T09:11:41;19.73;;;11.53;;
5688;SDS011;2869;50.432;8.680;2022-10-31T09:14:08;18.23;;;11.30;;
5688;SDS011;2869;50.432;8.680;2022-10-31T09:16:36;18.47;;;12.20;;
5688;SDS011;2869;50.432;8.680;2022-10-31T09:19:03;18.27;;;12.30;;
5688;SDS011;2869;50.432;8.680;2022-10-31T09:21:29;17.23;;;11.67;;
5688;SDS011;2869;50.432;8.680;2022-10-31T09:23:56;26.67;;;12.60;;
5688;SDS011;2869;50.432;8.680;2022-10-31T09:26:23;20.23;;;12.10;;
5688;SDS011;2869;50.432;8.680;2022-10-31T09:28:49;19.93;;;12.40;;
5688;SDS011;2869;50.432;8.680;2022-10-31T09:31:16;18.07;;;11.43;;
5688;SDS011;2869;50.432;8.680;2022-10-31T09:33:44;15.33;;;11.53;;
5688;SDS011;2869;50.432;8.680;2022-10-31T09:36:11;16.43;;;10.90;;
5688;SDS011;2869;50.432;8.680;2022-10-31T09:38:37;18.70;;;12.50;;
5688;SDS011;2869;50.432;8.680;2022-10-31T09:41:06;19.23;;;11.27;;
5688;SDS011;2869;50.432;8.680;2022-10-31T09:43:43;18.60;;;12.67;;
5688;SDS011;2869;50.432;8.680;2022-10-31T09:46:18;24.00;;;12.60;;
5688;SDS011;2869;50.432;8.680;2022-10-31T09:48:57;16.10;;;11.80;;
5688;SDS011;2869;50.432;8.680;2022-10-31T09:51:39;16.80;;;12.07;;
5688;SDS011;2869;50.432;8.680;2022-10-31T09:54:10;18.43;;;12.83;;
5688;SDS011;2869;50.432;8.680;2022-10-31T09:56:41;18.40;;;12.83;;
5688;SDS011;2869;50.432;8.680;2022-10-31T09:59:10;21.83;;;13.07;;
5688;SDS011;2869;50.432;8.680;2022-10-31T10:01:45;19.23;;;12.60;;
5688;SDS011;2869;50.432;8.680;2022-10-31T10:04:19;21.50;;;13.77;;
5688;SDS011;2869;50.432;8.680;2022-10-31T10:07:01;16.73;;;12.30;;
5688;SDS011;2869;50.432;8.680;2022-10-31T10:09:33;17.40;;;12.67;;
5688;SDS011;2869;50.432;8.680;2022-10-31T10:12:03;19.40;;;13.93;;
5688;SDS011;2869;50.432;8.680;2022-10-31T10:14:47;20.47;;;13.97;;
5688;SDS011;2869;50.432;8.680;2022-10-31T10:17:29;20.70;;;13.53;;
5688;SDS011;2869;50.432;8.680;2022-10-31T10:20:16;20.93;;;12.90;;
5688;SDS011;2869;50.432;8.680;2022-10-31T10:22:52;22.40;;;12.97;;
5688;SDS011;2869;50.432;8.680;2022-10-31T10:25:24;17.37;;;12.23;;
5688;SDS011;2869;50.432;8.680;2022-10-31T10:28:01;24.60;;;14.20;;
5688;SDS011;2869;50.432;8.680;2022-10-31T10:30:35;20.07;;;12.50;;
5688;SDS011;2869;50.432;8.680;2022-10-31T10:33:08;20.23;;;13.23;;
5688;SDS011;2869;50.432;8.680;2022-10-31T10:35:40;22.57;;;13.40;;
5688;SDS011;2869;50.432;8.680;2022-10-31T10:38:12;20.30;;;13.10;;
5688;SDS011;2869;50.432;8.680;2022-10-31T10:40:46;24.00;;;13.47;;
5688;SDS011;2869;50.432;8.680;2022-10-31T10:43:18;16.67;;;12.80;;
5688;SDS011;2869;50.432;8.680;2022-10-31T10:45:50;23.63;;;13.20;;
5688;SDS011;2869;50.432;8.680;2022-10-31T10:48:41;20.93;;;13.20;;
5688;SDS011;2869;50.432;8.680;2022-10-31T10:51:20;19.20;;;13.23;;
5688;SDS011;2869;50.432;8.680;2022-10-31T10:54:03;19.43;;;13.13;;
5688;SDS011;2869;50.432;8.680;2022-10-31T10:56:45;22.97;;;12.73;;
5688;SDS011;2869;50.432;8.680;2022-10-31T10:59:21;21.03;;;13.53;;
5688;SDS011;2869;50.432;8.680;2022-10-31T11:01:48;26.40;;;12.47;;
5688;SDS011;2869;50.432;8.680;2022-10-31T11:04:23;25.40;;;13.37;;
5688;SDS011;2869;50.432;8.680;2022-10-31T11:07:02;21.80;;;12.40;;
5688;SDS011;2869;50.432;8.680;2022-10-31T11:09:31;20.83;;;12.83;;
5688;SDS011;2869;50.432;8.680;2022-10-31T11:11:58;23.93;;;12.23;;
5688;SDS011;2869;50.432;8.680;2022-10-31T11:14:26;23.50;;;13.40;;
5688;SDS011;2869;50.432;8.680;2022-10-31T11:16:55;20.60;;;12.17;;
5688;SDS011;2869;50.432;8.680;2022-10-31T11:19:37;21.40;;;13.47;;
5688;SDS011;2869;50.432;8.680;2022-10-31T11:22:14;19.67;;;11.43;;
5688;SDS011;2869;50.432;8.680;2022-10-31T11:24:43;21.10;;;12.60;;
5688;SDS011;2869;50.432;8.680;2022-10-31T11:27:14;25.53;;;12.80;;
5688;SDS011;2869;50.432;8.680;2022-10-31T11:29:42;28.40;;;13.03;;
5688;SDS011;2869;50.432;8.680;2022-10-31T11:32:15;19.80;;;12.23;;
5688;SDS011;2869;50.432;8.680;2022-10-31T11:34:45;23.30;;;11.93;;
5688;SDS011;2869;50.432;8.680;2022-10-31T11:37:18;19.77;;;11.40;;
5688;SDS011;2869;50.432;8.680;2022-10-31T11:39:51;26.50;;;12.00;;
5688;SDS011;2869;50.432;8.680;2022-10-31T11:42:20;16.50;;;10.50;;
5688;SDS011;2869;50.432;8.680;2022-10-31T11:44:49;18.87;;;11.27;;
5688;SDS011;2869;50.432;8.680;2022-10-31T11:47:17;16.63;;;9.80;;
5688;SDS011;2869;50.432;8.680;2022-10-31T11:49:51;23.73;;;9.87;;
5688;SDS011;2869;50.432;8.680;2022-10-31T11:52:20;18.33;;;10.70;;
5688;SDS011;2869;50.432;8.680;2022-10-31T11:54:51;24.50;;;10.30;;
5688;SDS011;2869;50.432;8.680;2022-10-31T11:57:27;19.80;;;10.47;;
5688;SDS011;2869;50.432;8.680;2022-10-31T11:59:55;16.93;;;10.50;;
5688;SDS011;2869;50.432;8.680;2022-10-31T12:02:23;17.97;;;9.63;;
5688;SDS011;2869;50.432;8.680;2022-10-31T12:04:52;20.67;;;9.93;;
5688;SDS011;2869;50.432;8.680;2022-10-31T12:07:29;18.33;;;9.70;;
5688;SDS011;2869;50.432;8.680;2022-10-31T12:09:56;21.93;;;10.40;;
5688;SDS011;2869;50.432;8.680;2022-10-31T12:12:39;24.07;;;11.80;;
5688;SDS011;2869;50.432;8.680;2022-10-31T12:15:21;27.80;;;11.40;;
5688;SDS011;2869;50.432;8.680;2022-10-31T12:17:55;23.70;;;11.13;;
5688;SDS011;2869;50.432;8.680;2022-10-31T12:20:40;24.50;;;11.40;;
5688;SDS011;2869;50.432;8.680;2022-10-31T12:23:22;20.60;;;10.90;;
5688;SDS011;2869;50.432;8.680;2022-10-31T12:25:58;24.00;;;9.90;;
5688;SDS011;2869;50.432;8.680;2022-10-31T12:28:39;17.80;;;9.33;;
5688;SDS011;2869;50.432;8.680;2022-10-31T12:31:21;19.20;;;10.10;;
5688;SDS011;2869;50.432;8.680;2022-10-31T12:33:58;14.33;;;9.87;;
5688;SDS011;2869;50.432;8.680;2022-10-31T12:36:41;18.93;;;9.30;;
5688;SDS011;2869;50.432;8.680;2022-10-31T12:39:22;22.70;;;9.70;;
5688;SDS011;2869;50.432;8.680;2022-10-31T12:41:51;21.90;;;9.27;;
5688;SDS011;2869;50.432;8.680;2022-10-31T12:44:32;20.90;;;9.63;;
5688;SDS011;2869;50.432;8.680;2022-10-31T12:47:30;21.43;;;10.43;;
5688;SDS011;2869;50.432;8.680;2022-10-31T12:50:12;25.17;;;9.60;;
5688;SDS011;2869;50.432;8.680;2022-10-31T12:52:49;19.93;;;10.40;;
5688;SDS011;2869;50.432;8.680;2022-10-31T12:55:29;19.67;;;9.50;;
5688;SDS011;2869;50.432;8.680;2022-10-31T12:58:07;32.50;;;10.03;;
5688;SDS011;2869;50.432;8.680;2022-10-31T13:00:41;27.73;;;10.73;;
5688;SDS011;2869;50.432;8.680;2022-10-31T13:03:14;20.70;;;9.90;;
5688;SDS011;2869;50.432;8.680;2022-10-31T13:05:51;15.33;;;8.93;;
5688;SDS011;2869;50.432;8.680;2022-10-31T13:08:22;16.13;;;8.70;;
5688;SDS011;2869;50.432;8.680;2022-10-31T13:10:55;18.73;;;9.20;;
5688;SDS011;2869;50.432;8.680;2022-10-31T13:13:32;21.13;;;9.40;;
5688;SDS011;2869;50.432;8.680;2022-10-31T13:16:04;19.33;;;9.40;;
5688;SDS011;2869;50.432;8.680;2022-10-31T13:18:38;19.00;;;8.57;;
5688;SDS011;2869;50.432;8.680;2022-10-31T13:21:09;20.00;;;9.63;;
5688;SDS011;2869;50.432;8.680;2022-10-31T13:23:39;16.40;;;8.87;;
5688;SDS011;2869;50.432;8.680;2022-10-31T13:26:09;14.90;;;8.40;;
5688;SDS011;2869;50.432;8.680;2022-10-31T13:28:40;14.47;;;8.20;;
5688;SDS011;2869;50.432;8.680;2022-10-31T13:31:10;22.10;;;8.77;;
5688;SDS011;2869;50.432;8.680;2022-10-31T13:33:38;14.70;;;9.27;;
5688;SDS011;2869;50.432;8.680;2022-10-31T13:36:12;19.83;;;9.93;;
5688;SDS011;2869;50.432;8.680;2022-10-31T13:38:48;13.43;;;7.70;;
5688;SDS011;2869;50.432;8.680;2022-10-31T13:41:27;12.20;;;9.00;;
5688;SDS011;2869;50.432;8.680;2022-10-31T13:43:59;20.53;;;7.97;;
5688;SDS011;2869;50.432;8.680;2022-10-31T13:46:35;14.83;;;9.77;;
5688;SDS011;2869;50.432;8.680;2022-10-31T13:49:03;16.47;;;8.50;;
5688;SDS011;2869;50.432;8.680;2022-10-31T13:51:31;24.33;;;8.83;;
5688;SDS011;2869;50.432;8.680;2022-10-31T13:54:00;18.20;;;9.00;;
5688;SDS011;2869;50.432;8.680;2022-10-31T13:56:34;10.47;;;8.07;;
5688;SDS011;2869;50.432;8.680;2022-10-31T13:59:04;20.40;;;8.33;;
5688;SDS011;2869;50.432;8.680;2022-10-31T14:01:48;17.97;;;8.10;;
5688;SDS011;2869;50.432;8.680;2022-10-31T14:04:17;15.30;;;8.17;;
5688;SDS011;2869;50.432;8.680;2022-10-31T14:06:49;14.50;;;8.30;;
5688;SDS011;2869;50.432;8.680;2022-10-31T14:09:25;18.80;;;7.67;;
5688;SDS011;2869;50.432;8.680;2022-10-31T14:11:55;19.47;;;8.37;;
5688;SDS011;2869;50.432;8.680;2022-10-31T14:14:27;15.77;;;8.57;;
5688;SDS011;2869;50.432;8.680;2022-10-31T14:16:58;18.43;;;8.63;;
5688;SDS011;2869;50.432;8.680;2022-10-31T14:19:26;24.93;;;7.90;;
5688;SDS011;2869;50.432;8.680;2022-10-31T14:21:53;19.23;;;9.00;;
5688;SDS011;2869;50.432;8.680;2022-10-31T14:24:34;21.47;;;9.63;;
5688;SDS011;2869;50.432;8.680;2022-10-31T14:27:04;24.20;;;9.30;;
5688;SDS011;2869;50.432;8.680;2022-10-31T14:29:46;23.00;;;10.20;;
5688;SDS011;2869;50.432;8.680;2022-10-31T14:32:17;21.00;;;9.27;;
5688;SDS011;2869;50.432;8.680;2022-10-31T14:34:51;28.50;;;10.37;;
5688;SDS011;2869;50.432;8.680;2022-10-31T14:40:35;17.73;;;9.53;;
5688;SDS011;2869;50.432;8.680;2022-10-31T14:43:18;22.80;;;9.83;;
5688;SDS011;2869;50.432;8.680;2022-10-31T14:45:59;26.90;;;9.03;;
5688;SDS011;2869;50.432;8.680;2022-10-31T14:48:38;17.97;;;9.60;;
5688;SDS011;2869;50.432;8.680;2022-10-31T14:51:18;16.80;;;10.43;;
5688;SDS011;2869;50.432;8.680;2022-10-31T14:53:48;19.27;;;10.50;;
5688;SDS011;2869;50.432;8.680;2022-10-31T14:56:19;27.57;;;10.30;;
5688;SDS011;2869;50.432;8.680;2022-10-31T14:58:50;24.63;;;9.20;;
5688;SDS011;2869;50.432;8.680;2022-10-31T15:01:20;21.50;;;9.40;;
5688;SDS011;2869;50.432;8.680;2022-10-31T15:03:49;20.10;;;9.80;;
5688;SDS011;2869;50.432;8.680;2022-10-31T15:06:17;22.40;;;10.23;;
5688;SDS011;2869;50.432;8.680;2022-10-31T15:08:47;19.83;;;10.50;;
5688;SDS011;2869;50.432;8.680;2022-10-31T15:11:16;20.47;;;10.40;;
5688;SDS011;2869;50.432;8.680;2022-10-31T15:13:45;29.87;;;12.80;;
5688;SDS011;2869;50.432;8.680;2022-10-31T15:16:15;30.17;;;19.30;;
5688;SDS011;2869;50.432;8.680;2022-10-31T15:18:46;43.70;;;22.43;;
5688;SDS011;2869;50.432;8.680;2022-10-31T15:21:16;31.93;;;20.13;;